sensor_id;sensor_type;location;lat;lon;timestamp;pressure;altitude;pressure_sealevel;temperature;humidity
33414;BME280;60055;41.884;12.534;2024-02-26T00:01:39;100334.38;;;11.83;67.04
33414;BME280;60055;41.884;12.534;2024-02-26T00:04:05;100324.00;;;11.78;67.15
33414;BME280;60055;41.884;12.534;2024-02-26T00:06:30;100335.13;;;11.85;67.49
33414;BME280;60055;41.884;12.534;2024-02-26T00:08:56;100330.72;;;11.85;66.96
33414;BME280;60055;41.884;12.534;2024-02-26T00:11:22;100337.78;;;11.85;67.15
33414;BME280;60055;41.884;12.534;2024-02-26T00:13:47;100323.91;;;11.79;67.48
33414;BME280;60055;41.884;12.534;2024-02-26T00:16:13;100327.16;;;11.86;66.95
33414;BME280;60055;41.884;12.534;2024-02-26T00:18:38;100325.56;;;11.82;67.11
33414;BME280;60055;41.884;12.534;2024-02-26T00:21:04;100328.84;;;11.87;66.46
33414;BME280;60055;41.884;12.534;2024-02-26T00:23:29;100313.69;;;11.91;66.78
33414;BME280;60055;41.884;12.534;2024-02-26T00:25:55;100321.56;;;11.92;66.51
33414;BME280;60055;41.884;12.534;2024-02-26T00:28:21;100314.84;;;11.85;66.32
33414;BME280;60055;41.884;12.534;2024-02-26T00:30:47;100322.91;;;11.82;66.50
33414;BME280;60055;41.884;12.534;2024-02-26T00:33:14;100320.94;;;11.67;67.48
33414;BME280;60055;41.884;12.534;2024-02-26T00:35:39;100314.28;;;11.78;67.16
33414;BME280;60055;41.884;12.534;2024-02-26T00:38:05;100311.78;;;11.75;66.82
33414;BME280;60055;41.884;12.534;2024-02-26T00:40:30;100316.69;;;11.83;66.17
33414;BME280;60055;41.884;12.534;2024-02-26T00:42:56;100305.78;;;11.72;65.35
33414;BME280;60055;41.884;12.534;2024-02-26T00:45:21;100302.94;;;11.56;65.65
33414;BME280;60055;41.884;12.534;2024-02-26T00:47:47;100302.44;;;11.29;66.46
33414;BME280;60055;41.884;12.534;2024-02-26T00:50:14;100299.06;;;11.26;66.85
33414;BME280;60055;41.884;12.534;2024-02-26T00:52:40;100295.13;;;11.16;67.60
33414;BME280;60055;41.884;12.534;2024-02-26T00:55:06;100297.91;;;11.13;68.15
33414;BME280;60055;41.884;12.534;2024-02-26T00:57:31;100297.13;;;11.11;68.52
33414;BME280;60055;41.884;12.534;2024-02-26T00:59:57;100299.78;;;11.11;68.50
33414;BME280;60055;41.884;12.534;2024-02-26T01:02:22;100298.66;;;10.96;69.15
33414;BME280;60055;41.884;12.534;2024-02-26T01:04:48;100298.81;;;10.73;70.42
33414;BME280;60055;41.884;12.534;2024-02-26T01:07:13;100290.56;;;10.81;70.50
33414;BME280;60055;41.884;12.534;2024-02-26T01:09:39;100289.00;;;10.95;70.00
33414;BME280;60055;41.884;12.534;2024-02-26T01:12:04;100286.34;;;10.76;70.89
33414;BME280;60055;41.884;12.534;2024-02-26T01:14:30;100282.28;;;10.48;71.78
33414;BME280;60055;41.884;12.534;2024-02-26T01:16:55;100275.69;;;10.38;72.14
33414;BME280;60055;41.884;12.534;2024-02-26T01:19:21;100282.75;;;10.17;73.32
33414;BME280;60055;41.884;12.534;2024-02-26T01:21:46;100272.66;;;10.27;72.82
33414;BME280;60055;41.884;12.534;2024-02-26T01:24:12;100277.94;;;10.27;72.97
33414;BME280;60055;41.884;12.534;2024-02-26T01:26:37;100272.28;;;10.36;73.02
33414;BME280;60055;41.884;12.534;2024-02-26T01:29:03;100272.00;;;10.42;72.83
33414;BME280;60055;41.884;12.534;2024-02-26T01:31:28;100269.38;;;10.42;72.47
33414;BME280;60055;41.884;12.534;2024-02-26T01:33:54;100270.53;;;10.35;72.75
33414;BME280;60055;41.884;12.534;2024-02-26T01:36:19;100269.44;;;10.40;72.55
33414;BME280;60055;41.884;12.534;2024-02-26T01:38:46;100265.03;;;10.41;72.72
33414;BME280;60055;41.884;12.534;2024-02-26T01:41:13;100270.50;;;10.36;72.48
33414;BME280;60055;41.884;12.534;2024-02-26T01:43:39;100266.25;;;10.32;72.51
33414;BME280;60055;41.884;12.534;2024-02-26T01:46:04;100261.78;;;10.12;73.20
33414;BME280;60055;41.884;12.534;2024-02-26T01:48:30;100252.97;;;10.13;73.27
33414;BME280;60055;41.884;12.534;2024-02-26T01:50:55;100251.38;;;10.09;73.38
33414;BME280;60055;41.884;12.534;2024-02-26T01:53:21;100248.88;;;9.85;73.58
33414;BME280;60055;41.884;12.534;2024-02-26T01:55:47;100239.44;;;9.79;73.83
33414;BME280;60055;41.884;12.534;2024-02-26T01:58:13;100241.38;;;9.74;74.04
33414;BME280;60055;41.884;12.534;2024-02-26T02:00:39;100237.72;;;9.78;74.11
33414;BME280;60055;41.884;12.534;2024-02-26T02:03:05;100241.19;;;9.57;74.88
33414;BME280;60055;41.884;12.534;2024-02-26T02:05:30;100239.06;;;9.45;75.18
33414;BME280;60055;41.884;12.534;2024-02-26T02:07:56;100235.31;;;9.29;76.16
33414;BME280;60055;41.884;12.534;2024-02-26T02:10:22;100230.72;;;9.34;76.05
33414;BME280;60055;41.884;12.534;2024-02-26T02:12:50;100227.78;;;9.41;75.68
33414;BME280;60055;41.884;12.534;2024-02-26T02:15:16;100228.16;;;9.32;75.87
33414;BME280;60055;41.884;12.534;2024-02-26T02:17:42;100224.81;;;9.27;75.77
33414;BME280;60055;41.884;12.534;2024-02-26T02:20:09;100214.13;;;9.32;76.05
33414;BME280;60055;41.884;12.534;2024-02-26T02:22:34;100213.22;;;9.33;76.32
33414;BME280;60055;41.884;12.534;2024-02-26T02:24:59;100212.25;;;9.34;75.90
33414;BME280;60055;41.884;12.534;2024-02-26T02:27:26;100214.03;;;9.33;75.77
33414;BME280;60055;41.884;12.534;2024-02-26T02:29:52;100214.44;;;9.46;75.15
33414;BME280;60055;41.884;12.534;2024-02-26T02:32:19;100218.72;;;9.48;75.09
33414;BME280;60055;41.884;12.534;2024-02-26T02:34:45;100221.19;;;9.53;75.12
33414;BME280;60055;41.884;12.534;2024-02-26T02:37:10;100209.91;;;9.49;75.10
33414;BME280;60055;41.884;12.534;2024-02-26T02:39:36;100205.84;;;9.41;74.54
33414;BME280;60055;41.884;12.534;2024-02-26T02:42:01;100208.59;;;9.38;74.59
33414;BME280;60055;41.884;12.534;2024-02-26T02:44:27;100205.47;;;9.28;74.84
33414;BME280;60055;41.884;12.534;2024-02-26T02:46:52;100211.47;;;9.32;75.07
33414;BME280;60055;41.884;12.534;2024-02-26T02:49:18;100210.19;;;9.42;74.82
33414;BME280;60055;41.884;12.534;2024-02-26T02:51:44;100201.06;;;9.29;75.06
33414;BME280;60055;41.884;12.534;2024-02-26T02:54:09;100202.88;;;9.27;74.49
33414;BME280;60055;41.884;12.534;2024-02-26T02:56:35;100206.66;;;9.19;74.62
33414;BME280;60055;41.884;12.534;2024-02-26T02:59:01;100198.84;;;9.18;75.02
33414;BME280;60055;41.884;12.534;2024-02-26T03:01:27;100194.56;;;9.15;75.28
33414;BME280;60055;41.884;12.534;2024-02-26T03:03:52;100188.75;;;9.29;74.61
33414;BME280;60055;41.884;12.534;2024-02-26T03:06:17;100189.50;;;9.33;74.19
33414;BME280;60055;41.884;12.534;2024-02-26T03:08:43;100197.34;;;9.11;74.59
33414;BME280;60055;41.884;12.534;2024-02-26T03:11:13;100195.63;;;9.10;74.57
33414;BME280;60055;41.884;12.534;2024-02-26T03:13:39;100214.19;;;8.84;76.17
33414;BME280;60055;41.884;12.534;2024-02-26T03:16:05;100212.72;;;8.52;78.03
33414;BME280;60055;41.884;12.534;2024-02-26T03:18:30;100209.53;;;8.44;78.19
33414;BME280;60055;41.884;12.534;2024-02-26T03:20:56;100205.66;;;8.54;78.57
33414;BME280;60055;41.884;12.534;2024-02-26T03:23:21;100198.69;;;8.76;78.12
33414;BME280;60055;41.884;12.534;2024-02-26T03:25:47;100195.50;;;8.91;77.00
33414;BME280;60055;41.884;12.534;2024-02-26T03:28:13;100199.75;;;9.17;76.10
33414;BME280;60055;41.884;12.534;2024-02-26T03:30:38;100197.84;;;9.20;76.44
33414;BME280;60055;41.884;12.534;2024-02-26T03:33:04;100195.31;;;9.41;75.03
33414;BME280;60055;41.884;12.534;2024-02-26T03:35:29;100193.91;;;9.32;75.06
33414;BME280;60055;41.884;12.534;2024-02-26T03:37:55;100189.91;;;9.44;74.06
33414;BME280;60055;41.884;12.534;2024-02-26T03:40:20;100176.06;;;9.39;73.96
33414;BME280;60055;41.884;12.534;2024-02-26T03:42:46;100176.53;;;9.27;74.51
33414;BME280;60055;41.884;12.534;2024-02-26T03:45:11;100179.63;;;9.38;74.44
33414;BME280;60055;41.884;12.534;2024-02-26T03:47:40;100176.31;;;9.33;74.68
33414;BME280;60055;41.884;12.534;2024-02-26T03:50:06;100170.94;;;9.36;74.23
33414;BME280;60055;41.884;12.534;2024-02-26T03:52:33;100167.78;;;9.04;75.25
33414;BME280;60055;41.884;12.534;2024-02-26T03:54:59;100156.75;;;8.95;75.68
33414;BME280;60055;41.884;12.534;2024-02-26T03:57:24;100159.00;;;9.04;75.47
33414;BME280;60055;41.884;12.534;2024-02-26T03:59:50;100158.50;;;8.94;75.62
33414;BME280;60055;41.884;12.534;2024-02-26T04:02:16;100157.88;;;8.88;75.66
33414;BME280;60055;41.884;12.534;2024-02-26T04:04:41;100162.34;;;8.86;75.83
33414;BME280;60055;41.884;12.534;2024-02-26T04:07:07;100157.03;;;8.87;76.24
33414;BME280;60055;41.884;12.534;2024-02-26T04:09:33;100162.25;;;8.89;75.78
33414;BME280;60055;41.884;12.534;2024-02-26T04:11:58;100161.66;;;8.81;76.41
33414;BME280;60055;41.884;12.534;2024-02-26T04:14:23;100161.91;;;8.75;77.03
33414;BME280;60055;41.884;12.534;2024-02-26T04:16:49;100165.69;;;8.67;77.10
33414;BME280;60055;41.884;12.534;2024-02-26T04:19:17;100161.03;;;8.74;77.11
33414;BME280;60055;41.884;12.534;2024-02-26T04:21:43;100159.69;;;8.86;76.63
33414;BME280;60055;41.884;12.534;2024-02-26T04:24:08;100162.66;;;9.00;76.45
33414;BME280;60055;41.884;12.534;2024-02-26T04:26:34;100165.75;;;9.11;75.37
33414;BME280;60055;41.884;12.534;2024-02-26T04:28:59;100159.63;;;9.10;75.20
33414;BME280;60055;41.884;12.534;2024-02-26T04:31:25;100156.09;;;9.11;74.85
33414;BME280;60055;41.884;12.534;2024-02-26T04:33:51;100162.38;;;9.07;75.46
33414;BME280;60055;41.884;12.534;2024-02-26T04:36:17;100163.56;;;9.22;74.86
33414;BME280;60055;41.884;12.534;2024-02-26T04:38:45;100172.22;;;9.26;74.89
33414;BME280;60055;41.884;12.534;2024-02-26T04:41:11;100176.00;;;9.40;74.48
33414;BME280;60055;41.884;12.534;2024-02-26T04:43:37;100176.06;;;9.39;74.53
33414;BME280;60055;41.884;12.534;2024-02-26T04:46:07;100165.53;;;9.39;73.86
33414;BME280;60055;41.884;12.534;2024-02-26T04:48:34;100168.41;;;9.33;73.59
33414;BME280;60055;41.884;12.534;2024-02-26T04:51:00;100162.81;;;9.40;73.54
33414;BME280;60055;41.884;12.534;2024-02-26T04:53:25;100163.31;;;9.50;73.33
33414;BME280;60055;41.884;12.534;2024-02-26T04:55:51;100168.00;;;9.63;73.02
33414;BME280;60055;41.884;12.534;2024-02-26T04:58:17;100174.63;;;9.73;72.48
33414;BME280;60055;41.884;12.534;2024-02-26T05:00:42;100180.31;;;9.85;73.00
33414;BME280;60055;41.884;12.534;2024-02-26T05:03:08;100179.91;;;9.94;72.37
33414;BME280;60055;41.884;12.534;2024-02-26T05:05:38;100182.25;;;10.01;71.68
33414;BME280;60055;41.884;12.534;2024-02-26T05:08:03;100187.38;;;10.04;70.67
33414;BME280;60055;41.884;12.534;2024-02-26T05:10:29;100184.75;;;10.04;70.30
33414;BME280;60055;41.884;12.534;2024-02-26T05:12:54;100189.25;;;10.02;69.88
33414;BME280;60055;41.884;12.534;2024-02-26T05:15:20;100185.88;;;9.99;70.08
33414;BME280;60055;41.884;12.534;2024-02-26T05:17:45;100188.31;;;9.83;70.10
33414;BME280;60055;41.884;12.534;2024-02-26T05:20:11;100185.72;;;9.82;70.38
33414;BME280;60055;41.884;12.534;2024-02-26T05:22:36;100184.00;;;9.81;70.62
33414;BME280;60055;41.884;12.534;2024-02-26T05:25:02;100184.00;;;9.81;70.21
33414;BME280;60055;41.884;12.534;2024-02-26T05:27:28;100179.59;;;9.81;70.55
33414;BME280;60055;41.884;12.534;2024-02-26T05:29:53;100177.81;;;9.82;70.50
33414;BME280;60055;41.884;12.534;2024-02-26T05:32:19;100175.94;;;9.84;70.11
33414;BME280;60055;41.884;12.534;2024-02-26T05:34:45;100171.94;;;9.75;70.30
33414;BME280;60055;41.884;12.534;2024-02-26T05:37:10;100177.72;;;9.63;70.48
33414;BME280;60055;41.884;12.534;2024-02-26T05:39:36;100181.56;;;9.54;71.00
33414;BME280;60055;41.884;12.534;2024-02-26T05:42:02;100182.09;;;9.42;71.47
33414;BME280;60055;41.884;12.534;2024-02-26T05:44:28;100185.44;;;9.46;71.86
33414;BME280;60055;41.884;12.534;2024-02-26T05:46:53;100186.06;;;9.52;71.74
33414;BME280;60055;41.884;12.534;2024-02-26T05:49:19;100194.41;;;9.42;72.11
33414;BME280;60055;41.884;12.534;2024-02-26T05:51:44;100198.13;;;9.58;71.95
33414;BME280;60055;41.884;12.534;2024-02-26T05:54:09;100197.56;;;9.50;71.96
33414;BME280;60055;41.884;12.534;2024-02-26T05:56:35;100192.28;;;9.50;72.06
33414;BME280;60055;41.884;12.534;2024-02-26T05:59:01;100202.28;;;9.63;71.42
33414;BME280;60055;41.884;12.534;2024-02-26T06:01:26;100199.53;;;9.45;72.17
33414;BME280;60055;41.884;12.534;2024-02-26T06:03:52;100198.50;;;9.49;71.89
33414;BME280;60055;41.884;12.534;2024-02-26T06:06:17;100206.09;;;9.35;72.20
33414;BME280;60055;41.884;12.534;2024-02-26T06:08:43;100200.50;;;9.20;73.06
33414;BME280;60055;41.884;12.534;2024-02-26T06:11:09;100207.09;;;8.86;74.70
33414;BME280;60055;41.884;12.534;2024-02-26T06:13:35;100206.66;;;8.98;74.23
33414;BME280;60055;41.884;12.534;2024-02-26T06:16:01;100214.03;;;8.88;74.38
33414;BME280;60055;41.884;12.534;2024-02-26T06:18:27;100204.75;;;9.01;74.12
33414;BME280;60055;41.884;12.534;2024-02-26T06:20:52;100217.34;;;8.93;74.37
33414;BME280;60055;41.884;12.534;2024-02-26T06:23:18;100211.53;;;8.85;74.19
33414;BME280;60055;41.884;12.534;2024-02-26T06:25:43;100202.28;;;8.97;74.39
33414;BME280;60055;41.884;12.534;2024-02-26T06:28:09;100202.88;;;9.05;73.52
33414;BME280;60055;41.884;12.534;2024-02-26T06:30:34;100200.00;;;9.11;73.48
33414;BME280;60055;41.884;12.534;2024-02-26T06:33:00;100194.13;;;9.26;72.97
33414;BME280;60055;41.884;12.534;2024-02-26T06:35:26;100197.28;;;9.36;72.35
33414;BME280;60055;41.884;12.534;2024-02-26T06:37:51;100193.56;;;9.40;71.69
33414;BME280;60055;41.884;12.534;2024-02-26T06:40:21;100204.38;;;9.55;71.20
33414;BME280;60055;41.884;12.534;2024-02-26T06:42:46;100207.50;;;9.65;71.15
33414;BME280;60055;41.884;12.534;2024-02-26T06:45:12;100215.50;;;9.84;70.39
33414;BME280;60055;41.884;12.534;2024-02-26T06:47:37;100216.75;;;9.97;70.23
33414;BME280;60055;41.884;12.534;2024-02-26T06:50:03;100223.41;;;10.05;69.59
33414;BME280;60055;41.884;12.534;2024-02-26T06:52:29;100221.44;;;10.10;68.99
33414;BME280;60055;41.884;12.534;2024-02-26T06:54:54;100216.94;;;10.12;68.77
33414;BME280;60055;41.884;12.534;2024-02-26T06:57:21;100221.25;;;10.15;69.06
33414;BME280;60055;41.884;12.534;2024-02-26T06:59:46;100223.59;;;10.22;68.89
33414;BME280;60055;41.884;12.534;2024-02-26T07:02:13;100221.09;;;10.40;68.01
33414;BME280;60055;41.884;12.534;2024-02-26T07:04:38;100219.28;;;10.60;68.10
33414;BME280;60055;41.884;12.534;2024-02-26T07:07:04;100227.91;;;10.84;67.30
33414;BME280;60055;41.884;12.534;2024-02-26T07:09:29;100231.31;;;10.86;67.07
33414;BME280;60055;41.884;12.534;2024-02-26T07:11:55;100238.63;;;11.00;66.54
33414;BME280;60055;41.884;12.534;2024-02-26T07:14:20;100245.72;;;11.37;65.75
33414;BME280;60055;41.884;12.534;2024-02-26T07:16:46;100251.22;;;11.51;65.44
33414;BME280;60055;41.884;12.534;2024-02-26T07:19:11;100255.00;;;11.83;64.26
33414;BME280;60055;41.884;12.534;2024-02-26T07:21:36;100244.84;;;12.09;62.87
33414;BME280;60055;41.884;12.534;2024-02-26T07:24:02;100245.84;;;12.07;62.74
33414;BME280;60055;41.884;12.534;2024-02-26T07:26:27;100249.38;;;12.24;62.66
33414;BME280;60055;41.884;12.534;2024-02-26T07:28:55;100238.09;;;12.71;61.10
33414;BME280;60055;41.884;12.534;2024-02-26T07:31:20;100236.47;;;12.86;60.51
33414;BME280;60055;41.884;12.534;2024-02-26T07:33:46;100237.72;;;12.78;59.41
33414;BME280;60055;41.884;12.534;2024-02-26T07:36:11;100234.16;;;12.62;60.54
33414;BME280;60055;41.884;12.534;2024-02-26T07:38:37;100233.94;;;12.67;60.37
33414;BME280;60055;41.884;12.534;2024-02-26T07:41:02;100234.44;;;12.91;59.94
33414;BME280;60055;41.884;12.534;2024-02-26T07:43:28;100227.09;;;12.63;59.63
33414;BME280;60055;41.884;12.534;2024-02-26T07:45:54;100229.72;;;12.63;59.86
33414;BME280;60055;41.884;12.534;2024-02-26T07:48:19;100231.28;;;12.67;60.15
33414;BME280;60055;41.884;12.534;2024-02-26T07:50:44;100228.63;;;12.67;59.66
33414;BME280;60055;41.884;12.534;2024-02-26T07:53:10;100231.13;;;12.70;59.54
33414;BME280;60055;41.884;12.534;2024-02-26T07:55:35;100230.63;;;12.29;61.08
33414;BME280;60055;41.884;12.534;2024-02-26T07:58:01;100235.19;;;12.25;61.27
33414;BME280;60055;41.884;12.534;2024-02-26T08:00:26;100228.94;;;12.61;60.91
33414;BME280;60055;41.884;12.534;2024-02-26T08:02:51;100229.72;;;12.96;59.33
33414;BME280;60055;41.884;12.534;2024-02-26T08:05:17;100220.59;;;13.01;59.53
33414;BME280;60055;41.884;12.534;2024-02-26T08:07:42;100237.09;;;12.91;59.77
33414;BME280;60055;41.884;12.534;2024-02-26T08:10:08;100231.50;;;12.79;60.00
33414;BME280;60055;41.884;12.534;2024-02-26T08:12:34;100242.03;;;12.64;60.15
33414;BME280;60055;41.884;12.534;2024-02-26T08:15:00;100236.84;;;12.78;60.30
33414;BME280;60055;41.884;12.534;2024-02-26T08:17:26;100238.09;;;12.71;59.68
33414;BME280;60055;41.884;12.534;2024-02-26T08:19:52;100234.09;;;12.64;60.50
33414;BME280;60055;41.884;12.534;2024-02-26T08:22:17;100235.84;;;12.80;59.66
33414;BME280;60055;41.884;12.534;2024-02-26T08:24:43;100230.03;;;12.74;60.11
33414;BME280;60055;41.884;12.534;2024-02-26T08:27:09;100232.22;;;12.99;59.97
33414;BME280;60055;41.884;12.534;2024-02-26T08:29:34;100232.66;;;13.24;59.15
33414;BME280;60055;41.884;12.534;2024-02-26T08:32:00;100220.75;;;13.31;57.84
33414;BME280;60055;41.884;12.534;2024-02-26T08:34:26;100219.09;;;13.13;58.64
33414;BME280;60055;41.884;12.534;2024-02-26T08:36:51;100216.03;;;13.20;58.87
33414;BME280;60055;41.884;12.534;2024-02-26T08:39:17;100218.06;;;13.15;58.66
33414;BME280;60055;41.884;12.534;2024-02-26T08:41:43;100213.47;;;13.19;58.99
33414;BME280;60055;41.884;12.534;2024-02-26T08:44:09;100208.69;;;13.25;58.92
33414;BME280;60055;41.884;12.534;2024-02-26T08:46:35;100212.13;;;13.27;59.18
33414;BME280;60055;41.884;12.534;2024-02-26T08:49:00;100217.06;;;13.34;59.15
33414;BME280;60055;41.884;12.534;2024-02-26T08:51:25;100210.66;;;13.22;60.18
33414;BME280;60055;41.884;12.534;2024-02-26T08:53:51;100205.69;;;13.31;60.24
33414;BME280;60055;41.884;12.534;2024-02-26T08:56:16;100206.53;;;13.32;59.60
33414;BME280;60055;41.884;12.534;2024-02-26T08:58:45;100208.78;;;13.40;59.11
33414;BME280;60055;41.884;12.534;2024-02-26T09:01:13;100213.03;;;13.42;58.87
33414;BME280;60055;41.884;12.534;2024-02-26T09:03:39;100213.22;;;13.39;60.22
33414;BME280;60055;41.884;12.534;2024-02-26T09:06:05;100208.94;;;13.37;59.77
33414;BME280;60055;41.884;12.534;2024-02-26T09:08:32;100216.03;;;13.36;58.94
33414;BME280;60055;41.884;12.534;2024-02-26T09:10:57;100214.88;;;13.42;59.05
33414;BME280;60055;41.884;12.534;2024-02-26T09:13:23;100214.06;;;13.55;58.83
33414;BME280;60055;41.884;12.534;2024-02-26T09:15:48;100215.81;;;13.41;58.33
33414;BME280;60055;41.884;12.534;2024-02-26T09:18:14;100208.59;;;13.43;59.20
33414;BME280;60055;41.884;12.534;2024-02-26T09:20:40;100209.63;;;13.40;59.26
33414;BME280;60055;41.884;12.534;2024-02-26T09:23:06;100217.06;;;13.49;58.74
33414;BME280;60055;41.884;12.534;2024-02-26T09:25:31;100217.56;;;13.56;59.07
33414;BME280;60055;41.884;12.534;2024-02-26T09:27:59;100214.41;;;13.49;58.48
33414;BME280;60055;41.884;12.534;2024-02-26T09:30:24;100212.28;;;13.56;58.45
33414;BME280;60055;41.884;12.534;2024-02-26T09:32:50;100215.38;;;13.48;56.93
33414;BME280;60055;41.884;12.534;2024-02-26T09:35:15;100207.75;;;13.58;57.77
33414;BME280;60055;41.884;12.534;2024-02-26T09:37:41;100206.22;;;13.54;57.21
33414;BME280;60055;41.884;12.534;2024-02-26T09:40:08;100205.78;;;13.61;56.51
33414;BME280;60055;41.884;12.534;2024-02-26T09:42:37;100202.16;;;13.78;57.13
33414;BME280;60055;41.884;12.534;2024-02-26T09:45:10;100199.59;;;13.76;55.47
33414;BME280;60055;41.884;12.534;2024-02-26T09:47:38;100197.19;;;13.88;55.39
33414;BME280;60055;41.884;12.534;2024-02-26T09:50:05;100196.25;;;13.89;55.58
33414;BME280;60055;41.884;12.534;2024-02-26T09:52:35;100200.91;;;13.99;55.24
33414;BME280;60055;41.884;12.534;2024-02-26T09:55:04;100196.13;;;14.06;54.68
33414;BME280;60055;41.884;12.534;2024-02-26T09:57:29;100192.94;;;13.99;54.00
33414;BME280;60055;41.884;12.534;2024-02-26T09:59:59;100188.47;;;14.15;53.80
33414;BME280;60055;41.884;12.534;2024-02-26T10:02:29;100183.66;;;14.22;53.21
33414;BME280;60055;41.884;12.534;2024-02-26T10:04:57;100186.38;;;14.36;52.45
33414;BME280;60055;41.884;12.534;2024-02-26T10:07:26;100179.56;;;14.46;52.78
33414;BME280;60055;41.884;12.534;2024-02-26T10:09:55;100178.88;;;14.43;52.73
33414;BME280;60055;41.884;12.534;2024-02-26T10:12:21;100179.38;;;14.49;51.88
33414;BME280;60055;41.884;12.534;2024-02-26T10:14:47;100182.03;;;14.49;51.92
33414;BME280;60055;41.884;12.534;2024-02-26T10:17:12;100179.63;;;14.45;51.36
33414;BME280;60055;41.884;12.534;2024-02-26T10:19:38;100180.88;;;14.39;51.20
33414;BME280;60055;41.884;12.534;2024-02-26T10:22:03;100189.16;;;14.19;50.13
33414;BME280;60055;41.884;12.534;2024-02-26T10:24:30;100178.81;;;14.28;50.48
33414;BME280;60055;41.884;12.534;2024-02-26T10:26:56;100177.28;;;14.24;50.04
33414;BME280;60055;41.884;12.534;2024-02-26T10:29:23;100176.63;;;14.21;51.02
33414;BME280;60055;41.884;12.534;2024-02-26T10:31:50;100181.63;;;14.11;49.84
33414;BME280;60055;41.884;12.534;2024-02-26T10:34:16;100183.53;;;14.23;50.70
33414;BME280;60055;41.884;12.534;2024-02-26T10:36:42;100177.38;;;14.23;50.51
33414;BME280;60055;41.884;12.534;2024-02-26T10:39:09;100172.34;;;14.18;50.80
33414;BME280;60055;41.884;12.534;2024-02-26T10:41:36;100171.78;;;14.27;50.54
33414;BME280;60055;41.884;12.534;2024-02-26T10:44:02;100176.31;;;14.41;50.86
33414;BME280;60055;41.884;12.534;2024-02-26T10:46:28;100176.06;;;14.30;51.40
33414;BME280;60055;41.884;12.534;2024-02-26T10:48:54;100179.91;;;14.40;51.74
33414;BME280;60055;41.884;12.534;2024-02-26T10:51:29;100179.56;;;14.46;52.00
33414;BME280;60055;41.884;12.534;2024-02-26T10:53:56;100174.13;;;14.48;52.23
33414;BME280;60055;41.884;12.534;2024-02-26T10:56:28;100170.84;;;14.28;52.10
33414;BME280;60055;41.884;12.534;2024-02-26T10:58:57;100167.06;;;14.32;53.46
33414;BME280;60055;41.884;12.534;2024-02-26T11:01:24;100168.72;;;14.35;53.44
33414;BME280;60055;41.884;12.534;2024-02-26T11:03:55;100161.72;;;14.18;53.69
33414;BME280;60055;41.884;12.534;2024-02-26T11:06:21;100163.63;;;14.30;54.54
33414;BME280;60055;41.884;12.534;2024-02-26T11:08:48;100154.91;;;14.28;54.54
33414;BME280;60055;41.884;12.534;2024-02-26T11:11:14;100162.53;;;14.35;54.77
33414;BME280;60055;41.884;12.534;2024-02-26T11:13:42;100159.28;;;14.29;54.38
33414;BME280;60055;41.884;12.534;2024-02-26T11:16:11;100152.72;;;14.21;54.70
33414;BME280;60055;41.884;12.534;2024-02-26T11:18:39;100147.03;;;14.27;54.79
33414;BME280;60055;41.884;12.534;2024-02-26T11:21:07;100145.09;;;14.45;55.33
33414;BME280;60055;41.884;12.534;2024-02-26T11:23:34;100137.41;;;14.40;55.11
33414;BME280;60055;41.884;12.534;2024-02-26T11:26:04;100134.94;;;14.37;54.92
33414;BME280;60055;41.884;12.534;2024-02-26T11:28:32;100137.47;;;14.24;53.25
33414;BME280;60055;41.884;12.534;2024-02-26T11:30:59;100119.63;;;14.26;53.10
33414;BME280;60055;41.884;12.534;2024-02-26T11:33:26;100127.97;;;14.20;52.49
33414;BME280;60055;41.884;12.534;2024-02-26T11:35:53;100122.66;;;14.20;52.58
33414;BME280;60055;41.884;12.534;2024-02-26T11:38:24;100118.13;;;14.22;50.48
33414;BME280;60055;41.884;12.534;2024-02-26T11:40:52;100111.28;;;14.18;50.64
33414;BME280;60055;41.884;12.534;2024-02-26T11:43:19;100106.94;;;14.31;49.33
33414;BME280;60055;41.884;12.534;2024-02-26T11:45:49;100107.25;;;14.41;47.91
33414;BME280;60055;41.884;12.534;2024-02-26T11:48:23;100107.81;;;14.60;48.79
33414;BME280;60055;41.884;12.534;2024-02-26T11:50:55;100107.53;;;14.65;49.77
33414;BME280;60055;41.884;12.534;2024-02-26T11:53:30;100110.66;;;14.71;48.65
33414;BME280;60055;41.884;12.534;2024-02-26T11:58:53;100111.38;;;14.88;43.48
33414;BME280;60055;41.884;12.534;2024-02-26T12:04:12;100094.25;;;14.65;42.82
33414;BME280;60055;41.884;12.534;2024-02-26T12:06:42;100099.56;;;14.65;43.12
33414;BME280;60055;41.884;12.534;2024-02-26T12:09:08;100091.00;;;14.74;43.38
33414;BME280;60055;41.884;12.534;2024-02-26T12:11:38;100084.66;;;14.62;40.78
33414;BME280;60055;41.884;12.534;2024-02-26T12:14:05;100077.91;;;14.57;39.61
33414;BME280;60055;41.884;12.534;2024-02-26T12:16:36;100077.63;;;14.61;42.50
33414;BME280;60055;41.884;12.534;2024-02-26T12:19:07;100084.00;;;14.73;42.44
33414;BME280;60055;41.884;12.534;2024-02-26T12:21:34;100085.72;;;14.60;42.74
33414;BME280;60055;41.884;12.534;2024-02-26T12:24:11;100079.63;;;14.58;43.90
33414;BME280;60055;41.884;12.534;2024-02-26T12:26:41;100080.56;;;14.71;45.04
33414;BME280;60055;41.884;12.534;2024-02-26T12:29:07;100084.84;;;14.73;45.92
33414;BME280;60055;41.884;12.534;2024-02-26T12:31:33;100075.81;;;14.76;46.97
33414;BME280;60055;41.884;12.534;2024-02-26T12:34:02;100081.78;;;14.94;47.97
33414;BME280;60055;41.884;12.534;2024-02-26T12:36:27;100078.56;;;14.74;47.23
33414;BME280;60055;41.884;12.534;2024-02-26T12:38:53;100067.06;;;14.74;48.33
33414;BME280;60055;41.884;12.534;2024-02-26T12:41:19;100068.34;;;14.68;48.69
33414;BME280;60055;41.884;12.534;2024-02-26T12:43:46;100069.84;;;14.58;49.81